Time;durP1;ratioP1;P1;durP2;ratioP2;P2;SDS_P1;SDS_P2;PMS_P1;PMS_P2;Temp;Humidity;BMP_temperature;BMP_pressure;BME280_temperature;BME280_humidity;BME280_pressure;Samples;Min_cycle;Max_cycle;Signal;HPM_P1;HPM_P2
2021/11/16 00:01:23;;;;;;;13.35;9.48;;;;;;;2.13;100.00;101075.38;1782751;79;20836;-64
2021/11/16 00:04:14;;;;;;;12.95;9.15;;;;;;;2.05;100.00;101074.03;1747806;79;21491;-65
2021/11/16 00:06:53;;;;;;;12.18;8.73;;;;;;;1.94;100.00;101071.21;1770938;79;20973;-67
2021/11/16 00:09:29;;;;;;;13.93;8.90;;;;;;;1.84;100.00;101067.13;1766466;80;21443;-65
2021/11/16 00:12:07;;;;;;;10.90;8.33;;;;;;;1.83;100.00;101065.74;1766687;80;21395;-65
2021/11/16 00:14:40;;;;;;;11.25;8.28;;;;;;;1.82;100.00;101071.35;1768418;79;21431;-64
2021/11/16 00:19:57;;;;;;;12.20;8.65;;;;;;;1.82;100.00;101055.74;1760615;80;21466;-66
2021/11/16 00:22:24;;;;;;;13.50;8.95;;;;;;;1.84;100.00;101058.03;1762368;79;21474;-64
2021/11/16 00:27:38;;;;;;;12.07;8.25;;;;;;;1.84;100.00;101055.42;1758951;80;21417;-67
2021/11/16 00:30:15;;;;;;;9.85;7.75;;;;;;;1.85;100.00;101052.02;1685517;84;21478;-65
2021/11/16 00:32:56;;;;;;;12.68;8.68;;;;;;;1.84;100.00;101059.73;1678876;84;21640;-65
2021/11/16 00:35:32;;;;;;;9.78;7.37;;;;;;;1.78;100.00;101057.67;1700802;83;21012;-65
2021/11/16 00:38:02;;;;;;;10.90;7.97;;;;;;;1.76;100.00;101054.48;1766013;80;21124;-64
2021/11/16 00:40:39;;;;;;;10.63;7.70;;;;;;;1.71;100.00;101052.91;1770556;80;20978;-64
2021/11/16 00:43:08;;;;;;;11.40;8.35;;;;;;;1.71;100.00;101046.81;1758257;80;20877;-66
2021/11/16 00:45:42;;;;;;;10.58;7.75;;;;;;;1.69;100.00;101048.02;1749337;80;20853;-65
2021/11/16 00:48:15;;;;;;;11.10;8.05;;;;;;;1.68;100.00;101044.03;1760376;80;20916;-64
2021/11/16 00:51:05;;;;;;;10.05;7.72;;;;;;;1.68;100.00;101046.22;1761872;79;21450;-65
2021/11/16 00:53:36;;;;;;;9.60;7.83;;;;;;;1.65;100.00;101054.25;1768994;80;21434;-65
2021/11/16 00:56:10;;;;;;;10.90;8.05;;;;;;;1.60;100.00;101045.28;1754994;80;20872;-66
2021/11/16 00:58:45;;;;;;;11.68;8.18;;;;;;;1.56;100.00;101047.70;1747841;80;21510;-64
2021/11/16 01:01:13;;;;;;;10.82;8.05;;;;;;;1.53;100.00;101042.31;1744245;80;20944;-65
2021/11/16 01:03:51;;;;;;;10.28;7.50;;;;;;;1.50;100.00;101043.83;1768102;79;21403;-66
2021/11/16 01:06:26;;;;;;;10.25;7.70;;;;;;;1.51;100.00;101048.23;1771154;80;21033;-64
2021/11/16 01:09:00;;;;;;;;;;;;;;;1.52;100.00;101045.72;1779833;80;21470;-64
2021/11/16 01:11:33;;;;;;;9.15;7.35;;;;;;;1.53;100.00;101045.31;1780363;79;20363;-64
2021/11/16 01:14:18;;;;;;;11.38;7.42;;;;;;;1.53;100.00;101044.91;1784001;80;20880;-65
2021/11/16 01:16:49;;;;;;;9.85;7.28;;;;;;;1.55;100.00;101042.00;1783459;80;21101;-64
2021/11/16 01:19:26;;;;;;;10.82;7.80;;;;;;;1.57;100.00;101038.19;1783715;80;20872;-64
2021/11/16 01:22:01;;;;;;;8.88;7.35;;;;;;;1.60;100.00;101034.47;1752281;82;21409;-66
2021/11/16 01:24:34;;;;;;;9.50;7.17;;;;;;;1.63;100.00;101035.05;1752925;82;21430;-63
2021/11/16 01:27:10;;;;;;;9.05;7.15;;;;;;;1.62;100.00;101034.16;1752832;81;20939;-65
2021/11/16 01:29:47;;;;;;;9.63;6.60;;;;;;;1.65;100.00;101033.03;1772590;80;21431;-65
2021/11/16 01:32:32;;;;;;;12.50;8.10;;;;;;;1.66;100.00;101028.73;1761033;79;21458;-65
2021/11/16 01:35:01;;;;;;;11.28;7.62;;;;;;;1.63;100.00;101022.05;1778265;79;21312;-64
2021/11/16 01:37:37;;;;;;;8.98;7.28;;;;;;;1.55;100.00;101024.20;1774605;79;21458;-66
2021/11/16 01:40:27;;;;;;;10.38;7.72;;;;;;;1.47;100.00;101017.64;1781500;80;21448;-64
2021/11/16 01:43:09;;;;;;;8.98;7.03;;;;;;;1.45;100.00;101012.75;1764697;80;21947;-64
2021/11/16 01:45:44;;;;;;;9.20;7.30;;;;;;;1.45;100.00;101020.55;1776772;79;20952;-63
2021/11/16 01:48:24;;;;;;;9.78;7.55;;;;;;;1.41;100.00;101023.74;1755399;80;21519;-63
2021/11/16 01:51:15;;;;;;;12.25;7.45;;;;;;;1.39;100.00;101024.05;1750341;79;21415;-64
2021/11/16 01:53:53;;;;;;;8.55;6.97;;;;;;;1.35;100.00;101024.27;1773192;79;21411;-64
2021/11/16 01:56:17;;;;;;;9.85;7.33;;;;;;;1.32;100.00;101026.69;1778766;80;21395;-67
2021/11/16 01:58:53;;;;;;;7.87;6.67;;;;;;;1.28;100.00;101029.91;1783064;80;20915;-64
2021/11/16 02:01:37;;;;;;;10.63;7.65;;;;;;;1.29;100.00;101035.60;1782990;79;20934;-63
2021/11/16 02:04:16;;;;;;;9.48;6.95;;;;;;;1.28;100.00;101031.61;1732444;80;21488;-63
2021/11/16 02:06:59;;;;;;;9.35;7.62;;;;;;;1.27;100.00;101025.52;1775562;79;21462;-64
2021/11/16 02:09:39;;;;;;;10.25;7.47;;;;;;;1.30;100.00;101029.59;1775302;79;21427;-65
2021/11/16 02:12:38;;;;;;;9.90;7.90;;;;;;;1.30;100.00;101022.20;1784049;80;21464;-63
2021/11/16 02:15:08;;;;;;;10.50;7.53;;;;;;;1.28;100.00;101028.61;1779884;80;20915;-63
2021/11/16 02:17:43;;;;;;;8.50;6.70;;;;;;;1.25;100.00;101028.42;1780349;80;21419;-63
2021/11/16 02:20:19;;;;;;;9.70;7.55;;;;;;;1.22;100.00;101029.13;1773735;79;20945;-63
2021/11/16 02:22:54;;;;;;;8.88;7.00;;;;;;;1.21;100.00;101027.34;1772748;79;21415;-63
2021/11/16 02:25:25;;;;;;;10.08;7.40;;;;;;;1.19;100.00;101026.34;1754283;80;21428;-64
2021/11/16 02:28:01;;;;;;;11.80;7.70;;;;;;;1.22;100.00;101023.94;1782021;79;20888;-63
2021/11/16 02:30:38;;;;;;;11.40;7.28;;;;;;;1.30;100.00;101028.30;1783860;80;20963;-64
2021/11/16 02:33:20;;;;;;;10.10;7.20;;;;;;;1.33;100.00;101021.98;1783736;80;20884;-64
2021/11/16 02:36:10;;;;;;;11.95;8.03;;;;;;;1.36;100.00;101028.66;1687798;84;21482;-64
2021/11/16 02:38:47;;;;;;;10.43;7.22;;;;;;;1.35;100.00;101029.87;1690293;84;21466;-64
2021/11/16 02:41:20;;;;;;;10.08;7.55;;;;;;;1.29;100.00;101025.20;1689953;80;24688;-64
2021/11/16 02:44:18;;;;;;;;;;;;;;;;;;;;;
2021/11/16 02:46:37;;;;;;;10.23;7.47;;;;;;;1.14;100.00;101013.88;1747953;81;21483;-65
2021/11/16 02:49:21;;;;;;;9.03;6.95;;;;;;;1.10;100.00;101012.80;1783494;79;21048;-65
2021/11/16 02:51:55;;;;;;;9.65;6.90;;;;;;;1.14;100.00;101016.47;1781426;80;20931;-64
2021/11/16 02:54:49;;;;;;;10.32;7.37;;;;;;;1.15;100.00;101014.38;1784316;80;21497;-64
2021/11/16 02:57:16;;;;;;;10.58;7.50;;;;;;;1.19;100.00;101015.05;1771466;80;21419;-63
2021/11/16 02:59:53;;;;;;;11.03;7.40;;;;;;;1.17;100.00;101009.77;1784165;80;20931;-63
2021/11/16 03:02:32;;;;;;;8.90;7.12;;;;;;;1.21;100.00;101007.84;1780715;80;21546;-64
2021/11/16 03:05:00;;;;;;;9.58;7.17;;;;;;;1.26;100.00;101005.52;1783636;79;20998;-63
2021/11/16 03:07:55;;;;;;;9.80;7.35;;;;;;;1.21;100.00;101007.84;1784061;80;20891;-63
2021/11/16 03:10:32;;;;;;;9.75;7.33;;;;;;;1.17;100.00;101004.56;1775670;79;21451;-63
2021/11/16 03:13:19;;;;;;;11.88;7.87;;;;;;;1.12;100.00;101003.79;1767944;80;20949;-64
2021/11/16 03:15:57;;;;;;;9.03;6.95;;;;;;;1.09;100.00;101001.00;1741983;82;21444;-63
2021/11/16 03:18:39;;;;;;;9.83;7.37;;;;;;;1.08;100.00;100997.51;1721021;81;21972;-63
2021/11/16 03:21:13;;;;;;;11.95;7.22;;;;;;;1.02;100.00;100990.64;1772094;80;21439;-62
2021/11/16 03:23:50;;;;;;;8.98;7.22;;;;;;;0.98;100.00;100997.75;1774167;80;21423;-63
2021/11/16 03:26:24;;;;;;;11.30;8.25;;;;;;;1.01;100.00;100998.34;1769580;80;21389;-63
2021/11/16 03:29:01;;;;;;;11.10;7.12;;;;;;;0.98;100.00;100993.86;1769212;80;21419;-63
2021/11/16 03:32:03;;;;;;;;;;;;;;;;;;;;;
2021/11/16 03:34:40;;;;;;;8.50;6.92;;;;;;;1.01;100.00;100983.64;1773349;80;21546;-63
2021/11/16 03:37:20;;;;;;;12.45;7.78;;;;;;;1.03;100.00;100985.94;1775594;80;20949;-62
2021/11/16 03:40:19;;;;;;;10.60;7.25;;;;;;;1.03;100.00;100974.24;1773127;80;21472;-62
2021/11/16 03:42:34;;;;;;;11.08;7.35;;;;;;;1.08;100.00;100982.31;1753087;80;21465;-64
2021/11/16 03:45:07;;;;;;;9.18;7.37;;;;;;;1.09;100.00;100975.02;1774605;80;20959;-62
2021/11/16 03:47:43;;;;;;;8.75;7.60;;;;;;;1.09;100.00;100975.91;1775173;80;21522;-62
2021/11/16 03:50:23;;;;;;;7.80;6.72;;;;;;;1.09;100.00;100977.61;1773655;80;21455;-63
2021/11/16 03:53:02;;;;;;;9.25;7.80;;;;;;;1.09;100.00;100977.61;1720469;80;21383;-63
2021/11/16 03:55:57;;;;;;;10.10;7.20;;;;;;;1.08;100.00;100969.32;1772663;80;21443;-62
2021/11/16 03:58:40;;;;;;;10.13;7.42;;;;;;;1.06;100.00;100972.23;1763518;80;21432;-62
2021/11/16 04:01:20;;;;;;;10.32;8.03;;;;;;;1.06;100.00;100981.33;1765794;81;20948;-62
2021/11/16 04:04:01;;;;;;;;;;;;;;;1.01;100.00;100974.55;1763335;80;21648;-63
2021/11/16 04:06:37;;;;;;;9.75;7.53;;;;;;;0.94;100.00;100971.05;1752567;80;20390;-62
2021/11/16 04:09:20;;;;;;;20.57;8.35;;;;;;;0.90;100.00;100972.56;1767496;79;21596;-62
2021/11/16 04:12:02;;;;;;;11.38;8.15;;;;;;;0.89;100.00;100977.67;1769848;80;21439;-65
2021/11/16 04:14:41;;;;;;;10.05;7.50;;;;;;;0.89;100.00;100976.37;1771796;79;21471;-63
2021/11/16 04:17:13;;;;;;;12.00;8.15;;;;;;;0.88;100.00;100975.87;1775399;80;21503;-63
2021/11/16 04:19:48;;;;;;;9.75;7.75;;;;;;;0.88;100.00;100975.87;1775714;80;21023;-63
2021/11/16 04:22:21;;;;;;;11.03;8.38;;;;;;;0.85;100.00;100976.98;1762677;80;21120;-64
2021/11/16 04:24:53;;;;;;;11.15;8.10;;;;;;;0.82;100.00;100976.39;1762233;80;21455;-63
2021/11/16 04:27:33;;;;;;;10.00;8.08;;;;;;;0.79;100.00;100984.00;1770239;80;21466;-63
2021/11/16 04:30:09;;;;;;;11.55;9.23;;;;;;;0.78;100.00;100980.01;1774495;80;21451;-62
2021/11/16 04:32:50;;;;;;;12.05;8.35;;;;;;;0.78;100.00;100982.61;1773102;80;21042;-63
2021/11/16 04:35:21;;;;;;;11.75;8.23;;;;;;;0.78;100.00;100982.61;1769422;80;21079;-63
2021/11/16 04:37:59;;;;;;;11.40;7.75;;;;;;;0.76;100.00;100994.20;1764556;80;20916;-64
2021/11/16 04:41:13;;;;;;;16.57;8.43;;;;;;;0.74;100.00;100989.31;1756798;80;21427;-63
2021/11/16 04:43:56;;;;;;;15.70;8.20;;;;;;;0.78;100.00;100993.89;1769134;79;21506;-63
2021/11/16 04:46:35;;;;;;;13.22;8.00;;;;;;;0.79;100.00;100997.39;1775728;80;21443;-63
2021/11/16 04:49:22;;;;;;;12.33;7.87;;;;;;;0.76;100.00;100994.60;1775346;80;21375;-68
2021/11/16 04:52:00;;;;;;;14.20;7.97;;;;;;;0.74;100.00;100990.61;1762567;80;20928;-66
2021/11/16 05:02:44;;;;;;;14.03;7.85;;;;;;;0.74;100.00;101004.89;1768989;80;21057;-68
2021/11/16 05:05:21;;;;;;;13.75;8.20;;;;;;;0.68;100.00;100994.53;1773840;80;21487;-69
2021/11/16 05:08:09;;;;;;;11.53;8.48;;;;;;;0.60;100.00;101002.73;1774403;80;20956;-68
2021/11/16 05:10:39;;;;;;;12.00;8.18;;;;;;;0.57;100.00;101006.44;1762537;80;20927;-68
2021/11/16 05:13:09;;;;;;;11.48;8.18;;;;;;;0.59;100.00;101007.44;1771844;79;20928;-66
2021/11/16 05:15:40;;;;;;;13.95;8.33;;;;;;;0.61;100.00;101012.73;1774913;80;21444;-66
2021/11/16 05:18:08;;;;;;;13.40;9.33;;;;;;;0.60;100.00;101010.93;1775011;80;20868;-67
2021/11/16 05:20:37;;;;;;;14.13;9.53;;;;;;;0.60;100.00;101008.33;1775423;80;21003;-67
2021/11/16 05:23:12;;;;;;;11.70;8.50;;;;;;;0.62;100.00;101014.52;1774124;80;21475;-68
2021/11/16 05:25:41;;;;;;;16.27;8.55;;;;;;;0.66;100.00;101011.31;1775029;80;21597;-67
2021/11/16 05:28:12;;;;;;;13.78;8.98;;;;;;;0.68;100.00;101014.91;1774948;80;21045;-67
2021/11/16 05:30:43;;;;;;;13.68;9.58;;;;;;;0.61;100.00;101014.02;1774792;80;21483;-67
2021/11/16 05:33:24;;;;;;;11.18;8.53;;;;;;;0.57;100.00;101020.72;1774738;80;20956;-67
2021/11/16 05:35:51;;;;;;;11.83;8.55;;;;;;;0.54;100.00;101011.84;1773787;80;21012;-68
2021/11/16 05:38:32;;;;;;;16.70;9.68;;;;;;;0.54;100.00;101015.73;1775258;80;20932;-68
2021/11/16 05:41:01;;;;;;;12.88;8.70;;;;;;;0.53;100.00;101017.44;1775374;80;21171;-68
2021/11/16 05:43:29;;;;;;;14.95;8.68;;;;;;;0.57;100.00;101013.33;1775165;80;20892;-68
2021/11/16 05:45:58;;;;;;;12.00;8.88;;;;;;;0.59;100.00;101014.33;1775335;80;20924;-68
2021/11/16 05:48:34;;;;;;;12.95;9.28;;;;;;;0.59;100.00;101019.52;1775455;80;20940;-69
2021/11/16 05:51:03;;;;;;;13.55;9.35;;;;;;;0.58;100.00;101016.03;1775423;80;20881;-68
2021/11/16 05:53:36;;;;;;;13.20;9.70;;;;;;;0.56;100.00;101017.63;1775310;80;20899;-68
2021/11/16 05:56:05;;;;;;;12.57;8.90;;;;;;;0.50;100.00;101018.54;1775855;80;20980;-68
2021/11/16 05:58:33;;;;;;;12.43;9.40;;;;;;;0.49;100.00;101022.34;1775297;80;21483;-68
2021/11/16 06:01:01;;;;;;;13.62;9.48;;;;;;;0.47;100.00;101023.91;1771016;80;20947;-68
2021/11/16 06:03:29;;;;;;;12.93;9.60;;;;;;;0.43;100.00;101021.52;1760132;80;20940;-69
2021/11/16 06:06:01;;;;;;;15.28;9.88;;;;;;;0.42;100.00;101021.02;1773232;80;21927;-68
2021/11/16 06:08:31;;;;;;;12.78;9.50;;;;;;;0.46;100.00;101030.80;1763138;80;21419;-68
2021/11/16 06:11:00;;;;;;;13.60;9.40;;;;;;;0.48;100.00;101033.13;1762367;80;20898;-67
2021/11/16 06:13:29;;;;;;;35.98;10.13;;;;;;;0.47;100.00;101030.00;1761439;80;21459;-68
2021/11/16 06:15:58;;;;;;;12.43;9.58;;;;;;;0.47;100.00;101032.59;1756221;80;21477;-67
2021/11/16 06:18:27;;;;;;;13.90;9.93;;;;;;;0.48;100.00;101034.42;1758382;80;21108;-68
2021/11/16 06:21:00;;;;;;;16.48;9.83;;;;;;;0.46;100.00;101038.98;1768398;80;20884;-68
2021/11/16 06:23:27;;;;;;;14.38;10.05;;;;;;;0.43;100.00;101041.39;1759608;80;20958;-68
2021/11/16 06:25:56;;;;;;;12.30;9.20;;;;;;;0.40;100.00;101038.19;1760197;80;20900;-68
2021/11/16 06:28:24;;;;;;;13.98;9.73;;;;;;;0.39;100.00;101037.70;1761782;80;20912;-68
2021/11/16 06:30:52;;;;;;;12.75;9.60;;;;;;;0.38;100.00;101040.19;1762625;80;21107;-68
2021/11/16 06:33:23;;;;;;;12.75;9.40;;;;;;;0.41;100.00;101046.48;1761036;80;21523;-68
2021/11/16 06:35:52;;;;;;;14.30;9.33;;;;;;;0.41;100.00;101036.50;1760247;80;21023;-67
2021/11/16 06:38:22;;;;;;;14.00;9.18;;;;;;;0.46;100.00;101036.39;1766670;80;21471;-67
2021/11/16 06:40:50;;;;;;;29.12;10.00;;;;;;;0.50;100.00;101034.52;1757315;80;20952;-67
2021/11/16 06:43:30;;;;;;;12.70;9.58;;;;;;;0.52;100.00;101035.52;1760437;80;21104;-66
2021/11/16 06:46:01;;;;;;;15.48;9.33;;;;;;;0.57;100.00;101035.00;1765740;80;21423;-68
2021/11/16 06:48:29;;;;;;;13.00;9.58;;;;;;;0.61;100.00;101038.30;1765528;80;21469;-68
2021/11/16 06:50:57;;;;;;;13.18;10.30;;;;;;;0.56;100.00;101039.70;1759972;80;20967;-68
2021/11/16 06:53:32;;;;;;;14.58;10.50;;;;;;;0.47;100.00;101039.48;1765858;80;20908;-68
2021/11/16 06:56:01;;;;;;;14.03;9.83;;;;;;;0.42;100.00;101042.19;1760863;80;21112;-68
2021/11/16 06:58:29;;;;;;;14.47;10.40;;;;;;;0.39;100.00;101040.29;1760021;80;20867;-66
2021/11/16 07:00:56;;;;;;;14.33;9.88;;;;;;;0.35;100.00;101038.30;1766990;80;20949;-67
2021/11/16 07:03:25;;;;;;;12.18;9.58;;;;;;;0.35;100.00;101040.00;1767226;80;20979;-66
2021/11/16 07:05:59;;;;;;;13.40;10.10;;;;;;;0.38;100.00;101040.19;1775546;80;20935;-66
2021/11/16 07:08:41;;;;;;;15.83;10.58;;;;;;;0.40;100.00;101032.10;1775787;80;21060;-65
2021/11/16 07:11:20;;;;;;;13.32;10.08;;;;;;;0.44;100.00;101029.80;1775530;80;27316;-66
2021/11/16 07:14:08;;;;;;;17.37;10.80;;;;;;;0.53;100.00;101036.91;1775615;80;20856;-65
2021/11/16 07:16:41;;;;;;;13.85;10.78;;;;;;;0.58;100.00;101039.40;1775603;80;21408;-66
2021/11/16 07:19:11;;;;;;;14.58;11.08;;;;;;;0.58;100.00;101031.61;1775514;80;20876;-67
2021/11/16 07:21:50;;;;;;;15.23;11.08;;;;;;;0.61;100.00;101031.80;1775489;80;21909;-66
2021/11/16 07:24:20;;;;;;;14.50;10.93;;;;;;;0.60;100.00;101027.41;1775211;80;21387;-68
2021/11/16 07:27:01;;;;;;;19.75;11.20;;;;;;;0.66;100.00;101024.70;1775497;80;21395;-68
2021/11/16 07:29:49;;;;;;;19.52;11.05;;;;;;;0.68;100.00;101029.19;1775422;80;21485;-68
2021/11/16 07:32:21;;;;;;;16.82;12.00;;;;;;;0.69;100.00;101025.80;1775732;80;20943;-68
2021/11/16 07:34:50;;;;;;;14.63;10.50;;;;;;;0.61;100.00;101027.01;1775629;80;21447;-68
2021/11/16 07:37:27;;;;;;;18.57;11.83;;;;;;;0.61;100.00;101024.01;1775664;80;20873;-68
2021/11/16 07:39:58;;;;;;;16.57;12.00;;;;;;;0.58;100.00;101019.02;1775507;80;20931;-67
2021/11/16 07:42:35;;;;;;;27.87;12.65;;;;;;;0.58;100.00;101018.62;1753612;80;20991;-68
2021/11/16 07:45:14;;;;;;;16.67;12.03;;;;;;;0.60;100.00;101021.31;1775616;80;20885;-66
2021/11/16 07:47:59;;;;;;;18.10;12.15;;;;;;;0.67;100.00;101021.30;1775563;80;21090;-68
2021/11/16 07:50:38;;;;;;;17.95;12.25;;;;;;;0.77;100.00;101018.48;1775445;80;21407;-67
2021/11/16 07:53:18;;;;;;;17.85;12.60;;;;;;;0.88;100.00;101017.04;1775762;80;21383;-68
2021/11/16 07:56:04;;;;;;;14.80;11.83;;;;;;;0.97;100.00;101011.95;1775629;80;20984;-68
2021/11/16 07:58:42;;;;;;;17.57;12.73;;;;;;;1.01;100.00;101009.63;1775859;80;20900;-68
2021/11/16 08:01:15;;;;;;;23.87;12.93;;;;;;;1.01;100.00;101016.13;1775355;80;23143;-66
2021/11/16 08:03:48;;;;;;;16.40;12.55;;;;;;;1.00;100.00;101009.54;1775601;80;21471;-68
2021/11/16 08:06:18;;;;;;;18.87;12.50;;;;;;;0.98;100.00;101015.94;1775025;80;20888;-68
2021/11/16 08:11:25;;;;;;;14.58;11.73;;;;;;;1.06;100.00;101016.01;1779100;80;20911;-68
2021/11/16 08:14:09;;;;;;;17.12;12.55;;;;;;;1.13;100.00;101012.08;1783334;80;21069;-68
2021/11/16 08:16:51;;;;;;;16.93;12.85;;;;;;;1.14;100.00;101006.98;1783775;80;20926;-68
2021/11/16 08:19:22;;;;;;;16.42;12.70;;;;;;;1.16;100.00;101004.06;1783926;80;21455;-68
2021/11/16 08:21:55;;;;;;;19.30;13.95;;;;;;;1.17;100.00;101002.36;1783686;80;20923;-67
2021/11/16 08:24:19;;;;;;;20.27;13.22;;;;;;;1.16;100.00;100998.87;1783042;80;20887;-68
2021/11/16 08:26:48;;;;;;;19.77;13.53;;;;;;;1.16;100.00;100997.57;1783679;80;21064;-68
2021/11/16 08:29:32;;;;;;;27.70;14.60;;;;;;;1.18;100.00;100997.66;1754001;80;20935;-69
2021/11/16 08:32:11;;;;;;;21.42;14.05;;;;;;;1.16;100.00;100996.27;1783629;80;21691;-67
2021/11/16 08:34:42;;;;;;;19.07;13.45;;;;;;;1.17;100.00;100995.47;1783926;80;21451;-64
2021/11/16 08:37:12;;;;;;;17.43;13.43;;;;;;;1.16;100.00;100991.07;1783992;80;21391;-68
2021/11/16 08:39:44;;;;;;;18.57;12.95;;;;;;;1.16;100.00;100985.87;1784018;80;21605;-65
2021/11/16 08:42:27;;;;;;;17.12;12.95;;;;;;;1.20;100.00;100981.75;1783933;80;20821;-65
2021/11/16 08:45:18;;;;;;;24.60;13.70;;;;;;;1.20;100.00;100980.05;1753594;80;21431;-65
2021/11/16 08:47:52;;;;;;;16.75;13.48;;;;;;;1.19;100.00;100979.56;1783612;80;20837;-68
2021/11/16 08:50:32;;;;;;;18.98;14.05;;;;;;;1.23;100.00;100978.94;1784003;80;20888;-67
2021/11/16 08:53:03;;;;;;;17.42;13.13;;;;;;;1.28;100.00;100982.22;1783724;80;21108;-66
2021/11/16 08:55:33;;;;;;;16.55;12.73;;;;;;;1.31;100.00;100972.89;1783916;80;20824;-66
2021/11/16 08:58:02;;;;;;;17.62;13.05;;;;;;;1.35;100.00;100969.67;1783688;80;21475;-64
2021/11/16 09:00:40;;;;;;;16.67;13.05;;;;;;;1.43;100.00;100968.86;1783921;80;20879;-67
2021/11/16 09:03:18;;;;;;;20.55;14.75;;;;;;;1.49;100.00;100969.22;1783679;80;21546;-65
2021/11/16 09:05:48;;;;;;;19.77;15.03;;;;;;;1.52;100.00;100965.50;1783955;80;21085;-66
2021/11/16 09:08:29;;;;;;;20.02;14.25;;;;;;;1.47;100.00;100961.33;1778755;80;21396;-68
2021/11/16 09:11:00;;;;;;;20.52;14.95;;;;;;;1.44;100.00;100958.95;1771556;80;21028;-66
2021/11/16 09:13:30;;;;;;;19.15;13.88;;;;;;;1.38;100.00;100953.35;1769388;80;20892;-67
2021/11/16 09:16:07;;;;;;;16.35;13.00;;;;;;;1.35;100.00;100963.58;1773959;80;20951;-67
2021/11/16 09:18:39;;;;;;;25.60;14.10;;;;;;;1.29;100.00;100953.70;1770241;80;21122;-68
2021/11/16 09:21:14;;;;;;;23.98;13.50;;;;;;;1.26;100.00;100955.72;1769482;80;21033;-67
2021/11/16 09:23:47;;;;;;;19.45;13.30;;;;;;;1.22;100.00;100961.95;1765140;80;20946;-67
2021/11/16 09:29:14;;;;;;;17.52;12.23;;;;;;;1.23;100.00;100952.94;1773810;80;21452;-68
2021/11/16 09:31:53;;;;;;;16.75;13.40;;;;;;;1.23;100.00;100952.05;1769573;80;21030;-67
2021/11/16 09:34:30;;;;;;;18.32;12.05;;;;;;;1.17;100.00;100938.28;1773614;80;20915;-67
2021/11/16 09:37:15;;;;;;;17.57;12.30;;;;;;;1.11;100.00;100934.02;1769695;80;20852;-66
2021/11/16 09:39:49;;;;;;;16.05;12.90;;;;;;;1.11;100.00;100940.52;1773749;80;20931;-67
2021/11/16 09:42:30;;;;;;;18.75;13.10;;;;;;;1.11;100.00;100935.72;1773995;80;20971;-67
2021/11/16 09:45:04;;;;;;;14.65;11.53;;;;;;;1.10;100.00;100941.32;1773721;80;21093;-68
2021/11/16 09:47:34;;;;;;;;;;;;;;;1.05;100.00;100937.95;1775236;80;20878;-67
2021/11/16 09:50:06;;;;;;;16.42;12.35;;;;;;;1.05;100.00;100932.76;1765641;80;20069;-67
2021/11/16 09:52:42;;;;;;;35.85;14.00;;;;;;;1.07;100.00;100932.05;1775179;80;21468;-67
2021/11/16 09:55:13;;;;;;;15.95;12.07;;;;;;;1.08;100.00;100926.44;1768311;80;20918;-68
2021/11/16 09:57:46;;;;;;;15.80;12.28;;;;;;;1.11;100.00;100924.02;1772520;80;21735;-66
2021/11/16 10:00:25;;;;;;;18.30;12.70;;;;;;;1.14;100.00;100917.31;1769749;80;20959;-67
2021/11/16 10:03:13;;;;;;;15.98;12.40;;;;;;;1.16;100.00;100914.80;1774225;80;20907;-66
2021/11/16 10:05:55;;;;;;;16.75;12.70;;;;;;;1.17;100.00;100910.98;1768154;80;21896;-67
2021/11/16 10:08:23;;;;;;;17.07;12.85;;;;;;;1.20;100.00;100907.27;1773016;80;20852;-66
2021/11/16 10:10:53;;;;;;;16.27;12.78;;;;;;;1.24;100.00;100904.05;1770287;80;21071;-65
2021/11/16 10:13:27;;;;;;;16.40;12.55;;;;;;;1.27;100.00;100900.73;1761080;80;20894;-66
2021/11/16 10:15:57;;;;;;;16.55;11.60;;;;;;;1.33;100.00;100897.59;1761588;80;20932;-66
2021/11/16 10:18:26;;;;;;;16.37;12.30;;;;;;;1.39;100.00;100897.54;1764457;80;20889;-64
2021/11/16 10:20:54;;;;;;;18.02;10.88;;;;;;;1.47;100.00;100896.72;1761252;80;20991;-66
2021/11/16 10:23:44;;;;;;;23.73;12.23;;;;;;;1.49;100.00;100899.90;1759677;80;21398;-64
2021/11/16 10:26:12;;;;;;;16.62;11.83;;;;;;;1.56;100.00;100892.05;1765315;80;20856;-64
2021/11/16 10:28:43;;;;;;;21.30;13.05;;;;;;;1.65;100.00;100887.36;1762778;80;20884;-64
2021/11/16 10:31:11;;;;;;;15.32;11.85;;;;;;;1.69;100.00;100876.33;1761936;80;20912;-65
2021/11/16 10:33:49;;;;;;;14.10;12.15;;;;;;;1.71;100.00;100876.41;1768798;80;20886;-68
2021/11/16 10:36:17;;;;;;;14.05;11.33;;;;;;;1.73;100.00;100875.69;1747304;80;21811;-65
2021/11/16 10:38:53;;;;;;;16.10;11.48;;;;;;;1.76;100.00;100881.47;1768451;80;21537;-65
2021/11/16 10:41:27;;;;;;;21.12;12.90;;;;;;;1.75;100.00;100875.37;1761095;80;20889;-65
2021/11/16 10:44:07;;;;;;;19.07;13.75;;;;;;;1.78;100.00;100869.44;1764567;80;20846;-66
2021/11/16 10:46:40;;;;;;;22.48;12.20;;;;;;;1.77;100.00;100875.05;1761134;80;20943;-66
2021/11/16 10:49:11;;;;;;;16.20;12.15;;;;;;;1.70;100.00;100863.81;1767043;80;21439;-65
2021/11/16 10:51:40;;;;;;;13.13;11.07;;;;;;;1.64;100.00;100856.06;1761036;80;20918;-67
2021/11/16 10:54:11;;;;;;;14.20;10.40;;;;;;;1.65;100.00;100850.95;1758562;80;20973;-65
2021/11/16 10:56:38;;;;;;;24.45;12.70;;;;;;;1.73;100.00;100846.17;1752327;80;20879;-63
2021/11/16 10:59:14;;;;;;;16.57;12.78;;;;;;;1.77;100.00;100846.84;1744872;80;20925;-65
2021/11/16 11:01:50;;;;;;;13.40;10.65;;;;;;;1.81;100.00;100834.48;1745130;81;21106;-65
2021/11/16 11:04:27;;;;;;;14.95;11.80;;;;;;;1.84;100.00;100829.45;1744758;80;20973;-66
2021/11/16 11:06:55;;;;;;;20.88;11.25;;;;;;;1.82;100.00;100828.06;1744883;80;20858;-65
2021/11/16 11:09:25;;;;;;;16.27;10.50;;;;;;;1.86;100.00;100831.33;1744845;80;20891;-63
2021/11/16 11:11:54;;;;;;;20.40;12.03;;;;;;;1.93;100.00;100823.89;1747507;80;20978;-62
2021/11/16 11:14:36;;;;;;;16.23;11.65;;;;;;;1.95;100.00;100827.06;1752798;80;21385;-63
2021/11/16 11:17:08;;;;;;;27.02;12.58;;;;;;;1.94;100.00;100824.38;1753080;80;21400;-63
2021/11/16 11:19:41;;;;;;;13.43;11.97;;;;;;;1.97;100.00;100827.15;1752778;80;21464;-65
2021/11/16 11:24:50;;;;;;;15.18;11.38;;;;;;;2.00;100.00;100823.41;1765984;80;20888;-63
2021/11/16 11:29:56;;;;;;;13.22;11.18;;;;;;;2.04;100.00;100823.66;1766797;80;21412;-63
2021/11/16 11:32:29;;;;;;;16.93;12.03;;;;;;;2.10;100.00;100810.98;1766757;80;20945;-63
2021/11/16 11:35:03;;;;;;;41.05;12.30;;;;;;;2.28;100.00;100805.86;1752751;80;20898;-65
2021/11/16 11:37:34;;;;;;;15.40;10.88;;;;;;;2.46;100.00;100812.06;1752703;80;21488;-64
2021/11/16 11:40:20;;;;;;;14.43;10.82;;;;;;;2.55;100.00;100809.05;1752649;80;21099;-63
2021/11/16 11:43:02;;;;;;;18.82;10.53;;;;;;;2.50;100.00;100809.22;1752970;80;20846;-65
2021/11/16 11:45:36;;;;;;;;;;;;;;;2.40;100.00;100802.63;1755411;80;20894;-65
2021/11/16 11:48:09;;;;;;;11.95;10.20;;;;;;;2.46;100.00;100798.15;1753038;80;20440;-62
2021/11/16 11:50:43;;;;;;;;;;;;;;;2.48;100.00;100790.91;1754819;80;20935;-63
2021/11/16 11:53:18;;;;;;;17.15;9.98;;;;;;;2.50;100.00;100788.38;1753092;80;21047;-64
2021/11/16 11:55:50;;;;;;;15.00;10.60;;;;;;;2.55;100.00;100789.92;1752007;80;20885;-62
2021/11/16 11:58:19;;;;;;;13.58;10.43;;;;;;;2.59;100.00;100781.45;1753327;80;20913;-64
2021/11/16 12:00:50;;;;;;;17.17;11.08;;;;;;;2.71;100.00;100783.38;1752740;80;20854;-65
2021/11/16 12:03:18;;;;;;;16.90;10.88;;;;;;;2.87;100.00;100778.56;1753041;80;21488;-63
2021/11/16 12:05:45;;;;;;;15.03;11.93;;;;;;;2.98;100.00;100769.16;1733884;80;21118;-62
2021/11/16 12:08:15;;;;;;;19.15;11.60;;;;;;;3.11;100.00;100768.94;1752969;80;20878;-63
2021/11/16 12:10:49;;;;;;;16.05;10.98;;;;;;;3.31;100.00;100757.28;1752847;80;20941;-65
2021/11/16 12:13:23;;;;;;;16.27;12.23;;;;;;;3.54;100.00;100761.02;1746750;80;20930;-62
2021/11/16 12:16:21;;;;;;;19.00;11.70;;;;;;;3.79;100.00;100766.61;1744860;80;20897;-63
2021/11/16 12:18:51;;;;;;;17.15;11.57;;;;;;;3.93;100.00;100748.55;1759155;80;21103;-62
2021/11/16 12:21:35;;;;;;;15.43;11.33;;;;;;;4.11;100.00;100751.10;1744050;80;21392;-62